EST,Max TemperatureF,Mean TemperatureF,Min TemperatureF,Max Dew PointF,MeanDew PointF,Min DewpointF,Max Humidity, Mean Humidity, Min Humidity, Max Sea Level PressureIn, Mean Sea Level PressureIn, Min Sea Level PressureIn, Max VisibilityMiles, Mean VisibilityMiles, Min VisibilityMiles, Max Wind SpeedMPH, Mean Wind SpeedMPH, Max Gust SpeedMPH,PrecipitationIn, CloudCover, Events, WindDirDegrees
2013-1-1,35,33,31,34,30,21,100,76,52,30.12,30.00,29.92,10,3,0,9,5,12,0.14,8,Fog-Rain-Snow,309
2013-1-2,31,27,22,29,23,17,92,80,68,30.25,30.09,29.97,10,7,0,14,5,17,T,6,Fog-Snow,337
2013-1-3,34,26,17,20,18,15,92,72,51,30.32,30.26,30.12,10,10,8,12,4,15,0.00,0,,253
2013-1-4,30,26,22,20,17,16,77,70,63,30.40,30.33,30.21,10,10,10,18,9,28,0.00,5,,281
2013-1-5,42,30,17,25,20,15,91,68,44,30.45,30.34,30.18,10,10,9,13,3,20,T,3,Rain,234
2013-1-6,37,35,32,28,26,24,82,71,59,30.26,30.15,30.03,10,10,10,18,7,25,T,8,Rain,252
2013-1-7,42,34,25,24,21,18,78,62,45,30.49,30.38,30.23,10,10,10,17,6,22,0.00,4,,345
2013-1-8,48,38,27,25,21,17,72,51,29,30.43,30.37,30.33,10,10,10,14,5,20,0.00,0,,161
2013-1-9,50,44,38,46,40,24,100,73,46,30.51,30.41,30.31,10,5,0,12,5,15,0.11,6,Fog-Rain,253
2013-1-10,55,45,35,37,34,23,100,65,29,30.56,30.47,30.30,10,6,0,17,5,26,0.00,2,Fog,130
2013-1-11,58,51,44,52,45,34,89,72,54,30.28,30.14,30.04,10,10,9,20,11,30,0.03,6,Rain,159
2013-1-12,70,60,50,57,54,50,96,75,53,30.17,30.09,29.97,10,10,10,15,4,20,T,5,,216
2013-1-13,70,62,53,54,50,47,86,68,49,30.06,29.97,29.92,10,10,4,18,8,26,0.19,3,Rain,183
2013-1-14,58,46,33,54,40,32,100,93,86,30.35,30.19,29.99,10,5,0,18,8,25,0.53,8,Fog-Rain,348
2013-1-15,42,37,32,39,34,30,100,95,89,30.29,30.15,30.00,10,3,0,16,5,23,0.89,8,Fog-Rain,28
2013-1-16,54,45,35,45,39,33,96,84,71,30.08,29.98,29.89,10,6,0,16,6,23,0.54,8,Fog-Rain,231
2013-1-17,37,33,28,35,28,25,100,85,69,30.29,30.10,29.99,10,7,0,15,6,21,0.05,8,Fog-Snow,346
2013-1-18,36,29,22,23,18,6,85,62,38,30.53,30.41,30.21,10,10,10,21,7,28,0.00,2,,293
2013-1-19,49,41,33,21,17,8,56,41,26,30.41,30.27,30.07,10,10,10,21,10,25,0.00,0,,220
2013-1-20,45,37,28,27,19,8,69,49,29,30.14,30.08,30.02,10,10,10,22,10,31,0.00,0,,280
2013-1-21,37,28,18,13,8,2,68,47,25,30.12,30.05,29.96,10,10,10,31,11,40,0.00,1,,260
2013-1-22,18,13,7,2,-3,-6,69,53,37,30.33,30.23,30.00,10,10,10,22,11,30,0.00,1,,297
2013-1-23,26,18,9,13,1,-6,63,49,34,30.38,30.26,29.97,10,10,7,18,8,23,T,6,Snow,268
2013-1-24,28,19,9,14,7,1,84,69,53,30.57,30.30,30.05,10,6,1,25,10,31,T,6,Snow,331
2013-1-25,29,21,12,27,15,1,92,73,53,30.50,30.12,29.94,10,4,0,18,9,24,0.17,7,Fog-Rain-Snow,175
2013-1-26,28,25,22,25,20,16,96,85,74,30.47,30.25,30.04,10,9,5,20,9,25,T,8,Snow,301
2013-1-27,36,26,16,25,18,14,84,68,51,30.51,30.45,30.33,10,10,9,15,7,20,0.01,4,Rain,130
2013-1-28,58,45,32,47,40,27,93,78,62,30.35,30.24,30.17,10,8,4,18,10,26,0.29,7,Rain,220
2013-1-29,67,58,48,50,47,45,93,73,52,30.17,30.09,29.88,10,10,7,17,7,24,0.00,5,,221
2013-1-30,66,55,43,54,50,39,93,78,63,29.83,29.59,29.37,10,6,1,32,12,43,1.75,6,Rain,202
2013-1-31,43,34,24,36,21,14,89,73,57,29.96,29.75,29.44,10,6,0,30,15,45,0.07,8,Fog-Rain-Snow,273